sensor_id;sensor_type;location;lat;lon;timestamp;temperature;humidity
11922;DHT22;6021;51.182;3.160;2023-06-26T00:01:36;20.20;1.00
11922;DHT22;6021;51.182;3.160;2023-06-26T00:04:07;20.10;11.10
11922;DHT22;6021;51.182;3.160;2023-06-26T00:06:35;20.10;5.70
11922;DHT22;6021;51.182;3.160;2023-06-26T00:09:05;19.90;16.80
11922;DHT22;6021;51.182;3.160;2023-06-26T00:11:33;19.90;28.90
11922;DHT22;6021;51.182;3.160;2023-06-26T00:14:02;19.90;33.80
11922;DHT22;6021;51.182;3.160;2023-06-26T00:16:30;20.10;38.30
11922;DHT22;6021;51.182;3.160;2023-06-26T00:18:58;20.00;46.90
11922;DHT22;6021;51.182;3.160;2023-06-26T00:21:27;19.90;50.00
11922;DHT22;6021;51.182;3.160;2023-06-26T00:23:56;19.90;58.00
11922;DHT22;6021;51.182;3.160;2023-06-26T00:26:24;19.90;73.30
11922;DHT22;6021;51.182;3.160;2023-06-26T00:28:52;19.90;85.40
11922;DHT22;6021;51.182;3.160;2023-06-26T00:31:21;19.90;87.60
11922;DHT22;6021;51.182;3.160;2023-06-26T00:33:49;19.90;91.20
11922;DHT22;6021;51.182;3.160;2023-06-26T00:36:17;19.80;93.60
11922;DHT22;6021;51.182;3.160;2023-06-26T00:38:46;19.80;94.60
11922;DHT22;6021;51.182;3.160;2023-06-26T00:41:14;19.80;98.50
11922;DHT22;6021;51.182;3.160;2023-06-26T00:43:43;19.80;99.90
11922;DHT22;6021;51.182;3.160;2023-06-26T00:46:13;19.70;99.90
11922;DHT22;6021;51.182;3.160;2023-06-26T00:48:43;19.60;99.90
11922;DHT22;6021;51.182;3.160;2023-06-26T00:51:12;19.60;99.90
11922;DHT22;6021;51.182;3.160;2023-06-26T00:53:41;19.60;99.90
11922;DHT22;6021;51.182;3.160;2023-06-26T00:56:10;19.60;99.90
11922;DHT22;6021;51.182;3.160;2023-06-26T00:58:39;19.60;99.90
11922;DHT22;6021;51.182;3.160;2023-06-26T01:01:07;19.60;99.90
11922;DHT22;6021;51.182;3.160;2023-06-26T01:03:36;19.50;99.90
11922;DHT22;6021;51.182;3.160;2023-06-26T01:06:06;19.50;99.90
11922;DHT22;6021;51.182;3.160;2023-06-26T01:08:36;19.50;99.90
11922;DHT22;6021;51.182;3.160;2023-06-26T01:11:05;19.50;99.90
11922;DHT22;6021;51.182;3.160;2023-06-26T01:13:35;19.50;99.90
11922;DHT22;6021;51.182;3.160;2023-06-26T01:16:04;19.60;99.90
11922;DHT22;6021;51.182;3.160;2023-06-26T01:18:33;19.60;99.90
11922;DHT22;6021;51.182;3.160;2023-06-26T01:21:03;19.40;99.90
11922;DHT22;6021;51.182;3.160;2023-06-26T01:23:57;19.40;99.90
11922;DHT22;6021;51.182;3.160;2023-06-26T01:26:28;19.30;99.90
11922;DHT22;6021;51.182;3.160;2023-06-26T01:28:58;19.40;99.90
11922;DHT22;6021;51.182;3.160;2023-06-26T01:31:29;19.30;99.90
11922;DHT22;6021;51.182;3.160;2023-06-26T01:33:59;19.30;99.90
11922;DHT22;6021;51.182;3.160;2023-06-26T01:36:28;19.30;99.90
11922;DHT22;6021;51.182;3.160;2023-06-26T01:38:57;19.30;99.90
11922;DHT22;6021;51.182;3.160;2023-06-26T01:41:25;19.20;99.90
11922;DHT22;6021;51.182;3.160;2023-06-26T01:49:39;19.20;99.90
11922;DHT22;6021;51.182;3.160;2023-06-26T01:55:08;18.90;99.90
11922;DHT22;6021;51.182;3.160;2023-06-26T01:57:35;18.90;99.90
11922;DHT22;6021;51.182;3.160;2023-06-26T02:00:04;18.70;99.90
11922;DHT22;6021;51.182;3.160;2023-06-26T02:02:35;18.70;99.90
11922;DHT22;6021;51.182;3.160;2023-06-26T02:05:03;18.70;99.90
11922;DHT22;6021;51.182;3.160;2023-06-26T02:07:32;18.50;99.90
11922;DHT22;6021;51.182;3.160;2023-06-26T02:10:00;18.50;99.90
11922;DHT22;6021;51.182;3.160;2023-06-26T02:12:28;18.60;99.90
11922;DHT22;6021;51.182;3.160;2023-06-26T02:14:57;18.60;99.90
11922;DHT22;6021;51.182;3.160;2023-06-26T02:17:25;18.60;99.90
11922;DHT22;6021;51.182;3.160;2023-06-26T02:19:53;18.50;99.90
11922;DHT22;6021;51.182;3.160;2023-06-26T02:22:22;18.50;99.90
11922;DHT22;6021;51.182;3.160;2023-06-26T02:24:50;18.40;99.90
11922;DHT22;6021;51.182;3.160;2023-06-26T02:27:18;18.30;99.90
11922;DHT22;6021;51.182;3.160;2023-06-26T02:29:47;18.30;99.90
11922;DHT22;6021;51.182;3.160;2023-06-26T02:32:15;18.30;99.90
11922;DHT22;6021;51.182;3.160;2023-06-26T02:34:43;18.20;99.90
11922;DHT22;6021;51.182;3.160;2023-06-26T02:37:12;18.10;99.90
11922;DHT22;6021;51.182;3.160;2023-06-26T02:39:40;18.20;99.90
11922;DHT22;6021;51.182;3.160;2023-06-26T02:42:08;18.10;99.90
11922;DHT22;6021;51.182;3.160;2023-06-26T02:44:37;18.10;99.90
11922;DHT22;6021;51.182;3.160;2023-06-26T02:47:05;18.00;99.90
11922;DHT22;6021;51.182;3.160;2023-06-26T02:49:34;17.90;99.90
11922;DHT22;6021;51.182;3.160;2023-06-26T02:52:02;17.90;99.90
11922;DHT22;6021;51.182;3.160;2023-06-26T02:54:30;17.80;99.90
11922;DHT22;6021;51.182;3.160;2023-06-26T02:57:00;17.80;99.90
11922;DHT22;6021;51.182;3.160;2023-06-26T02:59:28;17.70;99.90
11922;DHT22;6021;51.182;3.160;2023-06-26T03:01:56;17.70;99.90
11922;DHT22;6021;51.182;3.160;2023-06-26T03:04:25;17.60;99.90
11922;DHT22;6021;51.182;3.160;2023-06-26T03:06:53;17.70;99.90
11922;DHT22;6021;51.182;3.160;2023-06-26T03:09:21;17.60;99.90
11922;DHT22;6021;51.182;3.160;2023-06-26T03:11:49;17.60;99.90
11922;DHT22;6021;51.182;3.160;2023-06-26T03:14:18;17.60;99.90
11922;DHT22;6021;51.182;3.160;2023-06-26T03:16:46;17.60;99.90
11922;DHT22;6021;51.182;3.160;2023-06-26T03:19:14;17.50;99.90
11922;DHT22;6021;51.182;3.160;2023-06-26T03:21:43;17.50;99.90
11922;DHT22;6021;51.182;3.160;2023-06-26T03:24:11;17.60;99.90
11922;DHT22;6021;51.182;3.160;2023-06-26T03:26:39;17.50;99.90
11922;DHT22;6021;51.182;3.160;2023-06-26T03:29:08;17.40;99.90
11922;DHT22;6021;51.182;3.160;2023-06-26T03:31:37;17.50;99.90
11922;DHT22;6021;51.182;3.160;2023-06-26T03:34:05;17.40;99.90
11922;DHT22;6021;51.182;3.160;2023-06-26T03:36:34;17.40;99.90
11922;DHT22;6021;51.182;3.160;2023-06-26T03:39:02;17.40;99.90
11922;DHT22;6021;51.182;3.160;2023-06-26T03:41:31;17.40;99.90
11922;DHT22;6021;51.182;3.160;2023-06-26T03:43:59;17.40;99.90
11922;DHT22;6021;51.182;3.160;2023-06-26T03:46:29;17.30;99.90
11922;DHT22;6021;51.182;3.160;2023-06-26T03:48:57;17.30;99.90
11922;DHT22;6021;51.182;3.160;2023-06-26T03:51:25;17.30;99.90
11922;DHT22;6021;51.182;3.160;2023-06-26T03:53:54;17.40;99.90
11922;DHT22;6021;51.182;3.160;2023-06-26T03:56:22;17.30;99.90
11922;DHT22;6021;51.182;3.160;2023-06-26T03:58:51;17.40;99.90
11922;DHT22;6021;51.182;3.160;2023-06-26T04:01:19;17.40;99.90
11922;DHT22;6021;51.182;3.160;2023-06-26T04:03:48;17.40;99.90
11922;DHT22;6021;51.182;3.160;2023-06-26T04:06:17;17.30;99.90
11922;DHT22;6021;51.182;3.160;2023-06-26T04:08:45;17.40;99.90
11922;DHT22;6021;51.182;3.160;2023-06-26T04:11:14;17.40;99.90
11922;DHT22;6021;51.182;3.160;2023-06-26T04:13:42;17.40;99.90
11922;DHT22;6021;51.182;3.160;2023-06-26T04:16:10;17.40;99.90
11922;DHT22;6021;51.182;3.160;2023-06-26T04:18:39;17.40;99.90
11922;DHT22;6021;51.182;3.160;2023-06-26T04:21:12;17.40;99.90
11922;DHT22;6021;51.182;3.160;2023-06-26T04:23:41;17.40;99.90
11922;DHT22;6021;51.182;3.160;2023-06-26T04:26:09;17.40;99.90
11922;DHT22;6021;51.182;3.160;2023-06-26T04:28:39;17.40;99.90
11922;DHT22;6021;51.182;3.160;2023-06-26T04:31:08;17.40;99.90
11922;DHT22;6021;51.182;3.160;2023-06-26T04:33:37;17.40;99.90
11922;DHT22;6021;51.182;3.160;2023-06-26T04:36:06;17.40;99.90
11922;DHT22;6021;51.182;3.160;2023-06-26T04:38:34;17.40;99.90
11922;DHT22;6021;51.182;3.160;2023-06-26T04:41:03;17.40;99.90
11922;DHT22;6021;51.182;3.160;2023-06-26T04:43:31;17.40;99.90
11922;DHT22;6021;51.182;3.160;2023-06-26T04:45:59;17.40;99.90
11922;DHT22;6021;51.182;3.160;2023-06-26T04:48:28;17.50;99.90
11922;DHT22;6021;51.182;3.160;2023-06-26T04:50:58;17.50;99.90
11922;DHT22;6021;51.182;3.160;2023-06-26T04:53:26;17.50;99.90
11922;DHT22;6021;51.182;3.160;2023-06-26T04:55:55;17.70;99.90
11922;DHT22;6021;51.182;3.160;2023-06-26T04:58:23;17.70;99.90
11922;DHT22;6021;51.182;3.160;2023-06-26T05:00:52;17.80;99.00
11922;DHT22;6021;51.182;3.160;2023-06-26T05:03:21;17.80;99.70
11922;DHT22;6021;51.182;3.160;2023-06-26T05:05:50;17.90;99.90
11922;DHT22;6021;51.182;3.160;2023-06-26T05:08:24;18.00;95.40
11922;DHT22;6021;51.182;3.160;2023-06-26T05:10:54;18.00;80.10
11922;DHT22;6021;51.182;3.160;2023-06-26T05:13:24;18.00;78.50
11922;DHT22;6021;51.182;3.160;2023-06-26T05:15:53;18.00;85.10
11922;DHT22;6021;51.182;3.160;2023-06-26T05:18:21;18.00;87.70
11922;DHT22;6021;51.182;3.160;2023-06-26T05:20:50;17.90;93.30
11922;DHT22;6021;51.182;3.160;2023-06-26T05:23:19;17.90;98.30
11922;DHT22;6021;51.182;3.160;2023-06-26T05:25:48;17.90;96.90
11922;DHT22;6021;51.182;3.160;2023-06-26T05:28:17;17.90;98.50
11922;DHT22;6021;51.182;3.160;2023-06-26T05:30:46;17.90;99.90
11922;DHT22;6021;51.182;3.160;2023-06-26T05:33:15;17.90;99.90
11922;DHT22;6021;51.182;3.160;2023-06-26T05:35:45;18.00;91.80
11922;DHT22;6021;51.182;3.160;2023-06-26T05:38:14;18.00;95.50
11922;DHT22;6021;51.182;3.160;2023-06-26T05:40:42;18.00;95.80
11922;DHT22;6021;51.182;3.160;2023-06-26T05:43:11;18.00;97.50
11922;DHT22;6021;51.182;3.160;2023-06-26T05:45:40;18.00;99.90
11922;DHT22;6021;51.182;3.160;2023-06-26T05:48:08;18.00;97.90
11922;DHT22;6021;51.182;3.160;2023-06-26T05:50:37;18.00;99.90
11922;DHT22;6021;51.182;3.160;2023-06-26T05:53:06;18.10;98.20
11922;DHT22;6021;51.182;3.160;2023-06-26T05:55:34;18.10;98.90
11922;DHT22;6021;51.182;3.160;2023-06-26T05:58:03;18.10;96.00
11922;DHT22;6021;51.182;3.160;2023-06-26T06:00:33;18.20;98.00
11922;DHT22;6021;51.182;3.160;2023-06-26T06:03:01;18.20;79.00
11922;DHT22;6021;51.182;3.160;2023-06-26T06:05:29;18.20;77.50
11922;DHT22;6021;51.182;3.160;2023-06-26T06:07:57;18.20;64.40
11922;DHT22;6021;51.182;3.160;2023-06-26T06:10:26;18.10;60.50
11922;DHT22;6021;51.182;3.160;2023-06-26T06:12:54;18.10;61.30
11922;DHT22;6021;51.182;3.160;2023-06-26T06:15:22;18.10;61.60
11922;DHT22;6021;51.182;3.160;2023-06-26T06:17:51;18.20;60.00
11922;DHT22;6021;51.182;3.160;2023-06-26T06:20:19;18.40;40.80
11922;DHT22;6021;51.182;3.160;2023-06-26T06:22:48;18.30;28.00
11922;DHT22;6021;51.182;3.160;2023-06-26T06:25:16;18.40;28.40
11922;DHT22;6021;51.182;3.160;2023-06-26T06:27:46;18.50;10.20
11922;DHT22;6021;51.182;3.160;2023-06-26T06:30:14;18.50;1.00
11922;DHT22;6021;51.182;3.160;2023-06-26T06:32:43;18.60;1.00
11922;DHT22;6021;51.182;3.160;2023-06-26T06:35:11;18.50;1.00
11922;DHT22;6021;51.182;3.160;2023-06-26T06:37:40;18.60;1.00
11922;DHT22;6021;51.182;3.160;2023-06-26T06:40:10;18.60;1.00
11922;DHT22;6021;51.182;3.160;2023-06-26T06:42:39;18.50;1.00
11922;DHT22;6021;51.182;3.160;2023-06-26T06:45:07;18.70;7.70
11922;DHT22;6021;51.182;3.160;2023-06-26T06:47:36;18.80;1.00
11922;DHT22;6021;51.182;3.160;2023-06-26T06:50:05;18.80;1.00
11922;DHT22;6021;51.182;3.160;2023-06-26T06:52:39;18.80;1.00
11922;DHT22;6021;51.182;3.160;2023-06-26T06:55:08;18.80;1.00
11922;DHT22;6021;51.182;3.160;2023-06-26T06:57:38;18.90;1.00
11922;DHT22;6021;51.182;3.160;2023-06-26T07:00:09;18.80;1.00
11922;DHT22;6021;51.182;3.160;2023-06-26T07:02:39;18.80;1.00
11922;DHT22;6021;51.182;3.160;2023-06-26T07:05:08;18.80;1.00
11922;DHT22;6021;51.182;3.160;2023-06-26T07:07:37;18.80;1.00
11922;DHT22;6021;51.182;3.160;2023-06-26T07:10:12;18.70;1.00
11922;DHT22;6021;51.182;3.160;2023-06-26T07:12:41;18.70;1.00
11922;DHT22;6021;51.182;3.160;2023-06-26T07:15:09;18.70;1.00
11922;DHT22;6021;51.182;3.160;2023-06-26T07:17:37;18.70;1.00
11922;DHT22;6021;51.182;3.160;2023-06-26T07:20:06;18.70;1.00
11922;DHT22;6021;51.182;3.160;2023-06-26T07:22:36;18.70;1.00
11922;DHT22;6021;51.182;3.160;2023-06-26T07:25:05;18.70;1.00
11922;DHT22;6021;51.182;3.160;2023-06-26T07:27:41;18.70;1.00
11922;DHT22;6021;51.182;3.160;2023-06-26T07:30:06;18.60;1.00
11922;DHT22;6021;51.182;3.160;2023-06-26T07:32:37;18.60;1.00
11922;DHT22;6021;51.182;3.160;2023-06-26T07:35:05;18.70;1.00
11922;DHT22;6021;51.182;3.160;2023-06-26T07:37:34;18.90;1.00
11922;DHT22;6021;51.182;3.160;2023-06-26T07:40:02;18.90;1.00
11922;DHT22;6021;51.182;3.160;2023-06-26T07:42:31;18.90;1.00
11922;DHT22;6021;51.182;3.160;2023-06-26T07:44:59;19.00;1.00
11922;DHT22;6021;51.182;3.160;2023-06-26T07:47:28;18.90;1.00
11922;DHT22;6021;51.182;3.160;2023-06-26T07:49:56;19.10;1.00
11922;DHT22;6021;51.182;3.160;2023-06-26T07:52:25;19.10;1.00
11922;DHT22;6021;51.182;3.160;2023-06-26T07:54:53;19.20;1.00
11922;DHT22;6021;51.182;3.160;2023-06-26T07:57:21;19.20;1.00
11922;DHT22;6021;51.182;3.160;2023-06-26T07:59:50;19.20;1.00
11922;DHT22;6021;51.182;3.160;2023-06-26T08:02:18;19.20;1.00
11922;DHT22;6021;51.182;3.160;2023-06-26T08:04:47;19.20;1.00
11922;DHT22;6021;51.182;3.160;2023-06-26T08:07:15;19.30;1.00
11922;DHT22;6021;51.182;3.160;2023-06-26T08:09:44;19.30;1.00
11922;DHT22;6021;51.182;3.160;2023-06-26T08:12:12;19.20;1.00
11922;DHT22;6021;51.182;3.160;2023-06-26T08:14:40;19.20;1.00
11922;DHT22;6021;51.182;3.160;2023-06-26T08:17:08;19.30;1.00
11922;DHT22;6021;51.182;3.160;2023-06-26T08:19:37;19.20;1.00
11922;DHT22;6021;51.182;3.160;2023-06-26T08:22:05;19.20;1.00
11922;DHT22;6021;51.182;3.160;2023-06-26T08:24:34;19.30;1.00
11922;DHT22;6021;51.182;3.160;2023-06-26T08:27:04;19.40;1.00
11922;DHT22;6021;51.182;3.160;2023-06-26T08:29:34;19.60;1.00
11922;DHT22;6021;51.182;3.160;2023-06-26T08:32:02;19.50;1.00
11922;DHT22;6021;51.182;3.160;2023-06-26T08:34:31;19.30;1.00
11922;DHT22;6021;51.182;3.160;2023-06-26T08:36:59;19.30;1.00
11922;DHT22;6021;51.182;3.160;2023-06-26T08:39:27;19.20;1.00
11922;DHT22;6021;51.182;3.160;2023-06-26T08:41:56;19.20;1.00
11922;DHT22;6021;51.182;3.160;2023-06-26T08:44:24;19.30;1.00
11922;DHT22;6021;51.182;3.160;2023-06-26T08:46:53;19.40;1.00
11922;DHT22;6021;51.182;3.160;2023-06-26T08:49:28;19.50;1.00
11922;DHT22;6021;51.182;3.160;2023-06-26T08:52:02;19.50;1.00
11922;DHT22;6021;51.182;3.160;2023-06-26T08:54:31;19.60;1.00
11922;DHT22;6021;51.182;3.160;2023-06-26T08:56:59;19.60;1.00
11922;DHT22;6021;51.182;3.160;2023-06-26T08:59:28;19.90;1.00
11922;DHT22;6021;51.182;3.160;2023-06-26T09:01:56;19.80;1.00
11922;DHT22;6021;51.182;3.160;2023-06-26T09:04:25;19.90;1.00
11922;DHT22;6021;51.182;3.160;2023-06-26T09:06:54;19.80;1.00
11922;DHT22;6021;51.182;3.160;2023-06-26T09:09:22;19.70;1.00
11922;DHT22;6021;51.182;3.160;2023-06-26T09:11:50;19.60;1.00
11922;DHT22;6021;51.182;3.160;2023-06-26T09:14:19;19.60;1.00
11922;DHT22;6021;51.182;3.160;2023-06-26T09:16:47;19.70;1.00
11922;DHT22;6021;51.182;3.160;2023-06-26T09:19:16;19.70;1.00
11922;DHT22;6021;51.182;3.160;2023-06-26T09:21:45;19.60;1.00
11922;DHT22;6021;51.182;3.160;2023-06-26T09:24:16;19.50;1.00
11922;DHT22;6021;51.182;3.160;2023-06-26T09:26:44;19.60;1.00
11922;DHT22;6021;51.182;3.160;2023-06-26T09:29:14;19.50;1.00
11922;DHT22;6021;51.182;3.160;2023-06-26T09:31:44;19.50;1.00
11922;DHT22;6021;51.182;3.160;2023-06-26T09:34:12;19.70;1.00
11922;DHT22;6021;51.182;3.160;2023-06-26T09:36:40;19.80;1.00
11922;DHT22;6021;51.182;3.160;2023-06-26T09:39:10;19.90;1.00
11922;DHT22;6021;51.182;3.160;2023-06-26T09:41:40;19.70;1.00
11922;DHT22;6021;51.182;3.160;2023-06-26T09:44:11;19.60;1.00
11922;DHT22;6021;51.182;3.160;2023-06-26T09:46:40;19.50;1.00
11922;DHT22;6021;51.182;3.160;2023-06-26T09:49:10;19.50;1.00
11922;DHT22;6021;51.182;3.160;2023-06-26T09:51:41;19.60;1.00
11922;DHT22;6021;51.182;3.160;2023-06-26T09:54:10;19.50;1.00
11922;DHT22;6021;51.182;3.160;2023-06-26T09:56:38;19.40;1.00
11922;DHT22;6021;51.182;3.160;2023-06-26T09:59:07;19.50;1.00
11922;DHT22;6021;51.182;3.160;2023-06-26T10:01:40;19.60;1.00
11922;DHT22;6021;51.182;3.160;2023-06-26T10:04:08;19.60;1.00
11922;DHT22;6021;51.182;3.160;2023-06-26T10:06:46;19.50;1.00
11922;DHT22;6021;51.182;3.160;2023-06-26T10:09:20;19.50;1.00
11922;DHT22;6021;51.182;3.160;2023-06-26T10:12:18;19.50;1.00
11922;DHT22;6021;51.182;3.160;2023-06-26T10:14:42;19.60;1.00
11922;DHT22;6021;51.182;3.160;2023-06-26T10:17:16;19.60;1.00
11922;DHT22;6021;51.182;3.160;2023-06-26T10:19:44;19.80;1.00
11922;DHT22;6021;51.182;3.160;2023-06-26T10:22:17;20.00;1.00
11922;DHT22;6021;51.182;3.160;2023-06-26T10:24:48;20.20;1.00
11922;DHT22;6021;51.182;3.160;2023-06-26T10:27:21;20.00;1.00
11922;DHT22;6021;51.182;3.160;2023-06-26T10:29:52;20.00;1.00
11922;DHT22;6021;51.182;3.160;2023-06-26T10:32:23;19.90;1.00
11922;DHT22;6021;51.182;3.160;2023-06-26T10:34:52;19.80;1.00
11922;DHT22;6021;51.182;3.160;2023-06-26T10:37:21;19.70;1.00
11922;DHT22;6021;51.182;3.160;2023-06-26T10:39:51;19.70;1.00
11922;DHT22;6021;51.182;3.160;2023-06-26T10:42:44;19.70;1.00
11922;DHT22;6021;51.182;3.160;2023-06-26T10:44:52;19.70;1.00
11922;DHT22;6021;51.182;3.160;2023-06-26T10:47:33;19.90;1.00
11922;DHT22;6021;51.182;3.160;2023-06-26T10:50:27;19.90;1.00
11922;DHT22;6021;51.182;3.160;2023-06-26T10:56:03;20.10;1.00
11922;DHT22;6021;51.182;3.160;2023-06-26T11:01:25;20.10;1.00
11922;DHT22;6021;51.182;3.160;2023-06-26T11:04:05;20.20;1.00
11922;DHT22;6021;51.182;3.160;2023-06-26T11:06:32;20.10;1.00
11922;DHT22;6021;51.182;3.160;2023-06-26T11:11:55;20.10;1.00
11922;DHT22;6021;51.182;3.160;2023-06-26T11:14:27;20.20;1.00
11922;DHT22;6021;51.182;3.160;2023-06-26T11:16:59;20.10;1.00
11922;DHT22;6021;51.182;3.160;2023-06-26T11:19:28;20.30;1.00
11922;DHT22;6021;51.182;3.160;2023-06-26T11:22:04;20.20;1.00
11922;DHT22;6021;51.182;3.160;2023-06-26T11:24:33;20.10;1.00
11922;DHT22;6021;51.182;3.160;2023-06-26T11:27:02;20.20;1.00
11922;DHT22;6021;51.182;3.160;2023-06-26T11:29:31;20.30;1.00
11922;DHT22;6021;51.182;3.160;2023-06-26T11:32:02;20.30;1.00
11922;DHT22;6021;51.182;3.160;2023-06-26T11:34:33;20.40;1.00
11922;DHT22;6021;51.182;3.160;2023-06-26T11:37:02;20.30;1.00
11922;DHT22;6021;51.182;3.160;2023-06-26T11:39:31;20.20;1.00
11922;DHT22;6021;51.182;3.160;2023-06-26T11:42:00;20.20;1.00
11922;DHT22;6021;51.182;3.160;2023-06-26T11:44:30;20.20;1.00
11922;DHT22;6021;51.182;3.160;2023-06-26T11:46:59;20.30;1.00
11922;DHT22;6021;51.182;3.160;2023-06-26T11:49:28;20.40;1.00
11922;DHT22;6021;51.182;3.160;2023-06-26T11:51:56;20.50;1.00
11922;DHT22;6021;51.182;3.160;2023-06-26T11:54:27;20.40;1.00
11922;DHT22;6021;51.182;3.160;2023-06-26T11:56:57;20.40;1.00
11922;DHT22;6021;51.182;3.160;2023-06-26T11:59:41;20.40;1.00
11922;DHT22;6021;51.182;3.160;2023-06-26T12:02:14;20.40;1.00
11922;DHT22;6021;51.182;3.160;2023-06-26T12:04:43;20.50;1.00
11922;DHT22;6021;51.182;3.160;2023-06-26T12:07:13;20.60;1.00
11922;DHT22;6021;51.182;3.160;2023-06-26T12:09:44;20.50;1.00
11922;DHT22;6021;51.182;3.160;2023-06-26T12:12:16;20.50;1.00
11922;DHT22;6021;51.182;3.160;2023-06-26T12:14:45;20.60;1.00
11922;DHT22;6021;51.182;3.160;2023-06-26T12:17:14;20.80;1.00
11922;DHT22;6021;51.182;3.160;2023-06-26T12:19:46;20.90;1.00
11922;DHT22;6021;51.182;3.160;2023-06-26T12:22:18;20.80;1.00
11922;DHT22;6021;51.182;3.160;2023-06-26T12:24:47;20.90;1.00
11922;DHT22;6021;51.182;3.160;2023-06-26T12:27:17;21.00;1.00
11922;DHT22;6021;51.182;3.160;2023-06-26T12:29:53;21.00;1.00
11922;DHT22;6021;51.182;3.160;2023-06-26T12:32:25;21.00;1.00
11922;DHT22;6021;51.182;3.160;2023-06-26T12:34:56;21.10;1.00
11922;DHT22;6021;51.182;3.160;2023-06-26T12:37:24;21.10;1.00
11922;DHT22;6021;51.182;3.160;2023-06-26T12:39:54;21.10;1.00
11922;DHT22;6021;51.182;3.160;2023-06-26T12:42:25;21.20;1.00
11922;DHT22;6021;51.182;3.160;2023-06-26T12:44:54;21.20;1.00
11922;DHT22;6021;51.182;3.160;2023-06-26T12:47:27;21.10;1.00
11922;DHT22;6021;51.182;3.160;2023-06-26T12:49:56;21.10;1.00
11922;DHT22;6021;51.182;3.160;2023-06-26T12:52:25;21.10;1.00
11922;DHT22;6021;51.182;3.160;2023-06-26T12:54:55;21.30;1.00
11922;DHT22;6021;51.182;3.160;2023-06-26T12:57:25;21.20;1.00
11922;DHT22;6021;51.182;3.160;2023-06-26T12:59:53;21.30;1.00
11922;DHT22;6021;51.182;3.160;2023-06-26T13:02:22;21.40;1.00
11922;DHT22;6021;51.182;3.160;2023-06-26T13:04:50;21.40;1.00
11922;DHT22;6021;51.182;3.160;2023-06-26T13:07:18;21.30;1.00
11922;DHT22;6021;51.182;3.160;2023-06-26T13:09:47;21.10;1.00
11922;DHT22;6021;51.182;3.160;2023-06-26T13:12:16;21.10;1.00
11922;DHT22;6021;51.182;3.160;2023-06-26T13:14:44;21.10;1.00
11922;DHT22;6021;51.182;3.160;2023-06-26T13:17:13;21.00;1.00
11922;DHT22;6021;51.182;3.160;2023-06-26T13:19:41;21.10;1.00
11922;DHT22;6021;51.182;3.160;2023-06-26T13:22:10;21.10;1.00
11922;DHT22;6021;51.182;3.160;2023-06-26T13:24:39;21.10;1.00
11922;DHT22;6021;51.182;3.160;2023-06-26T13:27:08;21.00;1.00
11922;DHT22;6021;51.182;3.160;2023-06-26T13:29:36;20.90;1.00
11922;DHT22;6021;51.182;3.160;2023-06-26T13:32:05;20.90;1.00
11922;DHT22;6021;51.182;3.160;2023-06-26T13:34:34;20.90;1.00
11922;DHT22;6021;51.182;3.160;2023-06-26T13:37:02;21.00;1.00
11922;DHT22;6021;51.182;3.160;2023-06-26T13:39:31;21.00;1.00
11922;DHT22;6021;51.182;3.160;2023-06-26T13:41:59;21.10;1.00
11922;DHT22;6021;51.182;3.160;2023-06-26T13:44:28;21.10;1.00
11922;DHT22;6021;51.182;3.160;2023-06-26T13:46:56;21.10;1.00
11922;DHT22;6021;51.182;3.160;2023-06-26T13:49:24;21.10;1.00
11922;DHT22;6021;51.182;3.160;2023-06-26T13:51:53;21.10;1.00
11922;DHT22;6021;51.182;3.160;2023-06-26T13:54:21;21.20;1.00
11922;DHT22;6021;51.182;3.160;2023-06-26T13:56:49;21.10;1.00
11922;DHT22;6021;51.182;3.160;2023-06-26T13:59:18;21.00;1.00
11922;DHT22;6021;51.182;3.160;2023-06-26T14:01:46;21.00;1.00
11922;DHT22;6021;51.182;3.160;2023-06-26T14:04:14;20.90;1.00
11922;DHT22;6021;51.182;3.160;2023-06-26T14:06:43;20.80;1.00
11922;DHT22;6021;51.182;3.160;2023-06-26T14:09:12;20.70;1.00
11922;DHT22;6021;51.182;3.160;2023-06-26T14:11:41;20.80;1.00
11922;DHT22;6021;51.182;3.160;2023-06-26T14:14:09;20.90;1.00
11922;DHT22;6021;51.182;3.160;2023-06-26T14:16:37;21.00;1.00
11922;DHT22;6021;51.182;3.160;2023-06-26T14:19:07;20.90;1.00
11922;DHT22;6021;51.182;3.160;2023-06-26T14:21:37;20.90;1.00
11922;DHT22;6021;51.182;3.160;2023-06-26T14:24:05;20.90;1.00
11922;DHT22;6021;51.182;3.160;2023-06-26T14:26:34;20.80;1.00
11922;DHT22;6021;51.182;3.160;2023-06-26T14:29:04;20.90;1.00
11922;DHT22;6021;51.182;3.160;2023-06-26T14:31:32;20.90;1.00
11922;DHT22;6021;51.182;3.160;2023-06-26T14:34:00;21.00;1.00
11922;DHT22;6021;51.182;3.160;2023-06-26T14:36:30;21.10;1.00
11922;DHT22;6021;51.182;3.160;2023-06-26T14:38:59;21.10;1.00
11922;DHT22;6021;51.182;3.160;2023-06-26T14:41:27;21.10;1.00
11922;DHT22;6021;51.182;3.160;2023-06-26T14:43:56;21.10;1.00
11922;DHT22;6021;51.182;3.160;2023-06-26T14:46:24;21.00;1.00
11922;DHT22;6021;51.182;3.160;2023-06-26T14:48:52;20.90;1.00
11922;DHT22;6021;51.182;3.160;2023-06-26T14:51:22;20.80;1.00
11922;DHT22;6021;51.182;3.160;2023-06-26T14:53:51;20.90;1.00
11922;DHT22;6021;51.182;3.160;2023-06-26T14:56:19;21.00;1.00
11922;DHT22;6021;51.182;3.160;2023-06-26T14:58:49;20.90;1.00
11922;DHT22;6021;51.182;3.160;2023-06-26T15:01:19;20.90;1.00
11922;DHT22;6021;51.182;3.160;2023-06-26T15:03:48;20.90;1.00
11922;DHT22;6021;51.182;3.160;2023-06-26T15:06:16;20.70;1.00
11922;DHT22;6021;51.182;3.160;2023-06-26T15:08:45;20.90;1.00
11922;DHT22;6021;51.182;3.160;2023-06-26T15:11:13;20.90;1.00
11922;DHT22;6021;51.182;3.160;2023-06-26T15:13:41;20.90;1.00
11922;DHT22;6021;51.182;3.160;2023-06-26T15:16:10;20.80;1.00
11922;DHT22;6021;51.182;3.160;2023-06-26T15:18:41;20.80;1.00
11922;DHT22;6021;51.182;3.160;2023-06-26T15:21:09;20.70;1.00
11922;DHT22;6021;51.182;3.160;2023-06-26T15:23:38;20.60;1.00
11922;DHT22;6021;51.182;3.160;2023-06-26T15:26:06;20.60;1.00
11922;DHT22;6021;51.182;3.160;2023-06-26T15:28:34;20.50;1.00
11922;DHT22;6021;51.182;3.160;2023-06-26T15:31:02;20.50;1.00
11922;DHT22;6021;51.182;3.160;2023-06-26T15:33:31;20.50;1.00
11922;DHT22;6021;51.182;3.160;2023-06-26T15:35:59;20.40;1.00
11922;DHT22;6021;51.182;3.160;2023-06-26T15:38:30;20.40;1.00
11922;DHT22;6021;51.182;3.160;2023-06-26T15:40:58;20.40;1.00
11922;DHT22;6021;51.182;3.160;2023-06-26T15:43:26;20.50;1.00
11922;DHT22;6021;51.182;3.160;2023-06-26T15:45:55;20.40;1.00
11922;DHT22;6021;51.182;3.160;2023-06-26T15:48:23;20.40;1.00
11922;DHT22;6021;51.182;3.160;2023-06-26T15:50:52;20.30;1.00
11922;DHT22;6021;51.182;3.160;2023-06-26T15:53:33;20.30;1.00
11922;DHT22;6021;51.182;3.160;2023-06-26T15:55:52;20.30;1.00
11922;DHT22;6021;51.182;3.160;2023-06-26T15:58:20;20.40;1.00
11922;DHT22;6021;51.182;3.160;2023-06-26T16:00:49;20.50;1.00
11922;DHT22;6021;51.182;3.160;2023-06-26T16:03:17;20.50;1.00
11922;DHT22;6021;51.182;3.160;2023-06-26T16:05:46;20.50;1.00
11922;DHT22;6021;51.182;3.160;2023-06-26T16:08:14;20.60;1.00
11922;DHT22;6021;51.182;3.160;2023-06-26T16:10:42;20.60;1.00
11922;DHT22;6021;51.182;3.160;2023-06-26T16:13:11;20.60;1.00
11922;DHT22;6021;51.182;3.160;2023-06-26T16:15:39;20.60;1.00
11922;DHT22;6021;51.182;3.160;2023-06-26T16:18:08;20.50;1.00
11922;DHT22;6021;51.182;3.160;2023-06-26T16:20:36;20.40;1.00
11922;DHT22;6021;51.182;3.160;2023-06-26T16:23:04;20.30;1.00
11922;DHT22;6021;51.182;3.160;2023-06-26T16:25:33;20.30;1.00